createdAt,value
2022-12-11T00:00:55.255Z,0.41
2022-12-11T00:03:26.467Z,0.42
2022-12-11T00:05:57.726Z,0.44
2022-12-11T00:08:28.933Z,0.46
2022-12-11T00:11:00.163Z,0.49
2022-12-11T00:13:31.420Z,0.51
2022-12-11T00:16:02.625Z,0.52
2022-12-11T00:18:33.927Z,0.52
2022-12-11T00:21:06.197Z,0.52
2022-12-11T00:23:37.938Z,0.52
2022-12-11T00:26:10.248Z,0.51
2022-12-11T00:28:42.218Z,0.50
2022-12-11T00:31:16.298Z,0.50
2022-12-11T00:33:49.114Z,0.45
2022-12-11T00:36:21.823Z,0.43
2022-12-11T00:38:53.771Z,0.42
2022-12-11T00:41:25.045Z,0.42
2022-12-11T00:43:56.276Z,0.43
2022-12-11T00:46:27.520Z,0.43
2022-12-11T00:48:58.843Z,0.42
2022-12-11T00:51:30.162Z,0.41
2022-12-11T00:54:01.426Z,0.41
2022-12-11T00:56:32.726Z,0.43
2022-12-11T00:59:03.919Z,0.41
2022-12-11T01:01:35.259Z,0.37
2022-12-11T01:04:06.492Z,0.37
2022-12-11T01:06:38.933Z,0.39
2022-12-11T01:09:28.703Z,0.39
2022-12-11T01:11:59.899Z,0.40
2022-12-11T01:14:31.111Z,0.42
2022-12-11T01:17:02.382Z,0.43
2022-12-11T01:19:33.640Z,0.40
2022-12-11T01:22:04.844Z,0.40
2022-12-11T01:24:36.047Z,0.39
2022-12-11T01:27:07.317Z,0.39
2022-12-11T01:29:38.526Z,0.39
2022-12-11T01:32:09.719Z,0.37
2022-12-11T01:34:40.940Z,0.35
2022-12-11T01:37:12.161Z,0.35
2022-12-11T01:39:43.390Z,0.32
2022-12-11T01:42:18.214Z,0.29
2022-12-11T01:44:49.379Z,0.27
2022-12-11T01:47:20.589Z,0.25
2022-12-11T01:49:51.781Z,0.26
2022-12-11T01:52:22.992Z,0.27
2022-12-11T01:54:54.204Z,0.30
2022-12-11T01:57:25.415Z,0.30
2022-12-11T01:59:56.776Z,0.31
2022-12-11T02:02:29.392Z,0.32
2022-12-11T02:05:03.811Z,0.32
2022-12-11T02:07:38.533Z,0.32
2022-12-11T02:10:12.028Z,0.32
2022-12-11T02:12:57.480Z,0.32
2022-12-11T02:15:47.004Z,0.33
2022-12-11T02:18:33.572Z,0.30
2022-12-11T02:21:20.630Z,0.31
2022-12-11T02:24:18.933Z,0.31
2022-12-11T02:26:58.976Z,0.32
2022-12-11T02:29:38.272Z,0.29
2022-12-11T02:32:14.234Z,0.28
2022-12-11T02:35:00.106Z,0.20
2022-12-11T02:37:32.819Z,0.25
2022-12-11T02:40:06.376Z,0.22
2022-12-11T02:42:39.514Z,0.22
2022-12-11T02:45:12.207Z,0.24
2022-12-11T02:47:46.018Z,0.23
2022-12-11T02:50:19.907Z,0.21
2022-12-11T02:52:53.652Z,0.22
2022-12-11T02:55:25.953Z,0.24
2022-12-11T02:58:03.740Z,0.25
2022-12-11T03:00:35.026Z,0.26
2022-12-11T03:03:06.386Z,0.26
2022-12-11T03:09:05.306Z,0.27
2022-12-11T03:11:36.568Z,0.26
2022-12-11T03:14:08.168Z,0.26
2022-12-11T03:16:42.902Z,0.24
2022-12-11T03:19:27.777Z,0.21
2022-12-11T03:22:03.381Z,0.18
2022-12-11T03:24:34.630Z,0.10
2022-12-11T03:27:29.025Z,0.08
2022-12-11T03:30:02.415Z,0.08
2022-12-11T03:32:42.133Z,0.08
2022-12-11T03:35:17.358Z,0.06
2022-12-11T03:37:51.007Z,0.07
2022-12-11T03:40:23.730Z,0.06
2022-12-11T03:42:56.252Z,0.04
2022-12-11T03:45:29.464Z,0.05
2022-12-11T03:48:01.688Z,0.07
2022-12-11T03:50:34.487Z,0.08
2022-12-11T03:53:06.143Z,0.08
2022-12-11T03:55:38.185Z,0.05
2022-12-11T03:58:09.401Z,0.07
2022-12-11T04:00:40.598Z,0.05
2022-12-11T04:03:15.018Z,0.05
2022-12-11T04:05:47.902Z,0.05
2022-12-11T04:08:20.785Z,0.05
2022-12-11T04:11:12.129Z,0.05
2022-12-11T04:13:43.434Z,0.03
2022-12-11T04:16:14.670Z,0.00
2022-12-11T04:19:04.571Z,-0.03
2022-12-11T04:21:54.603Z,-0.07
2022-12-11T04:24:25.895Z,-0.08
2022-12-11T04:26:57.119Z,-0.10
2022-12-11T04:29:28.362Z,-0.11
2022-12-11T04:31:59.588Z,-0.10
2022-12-11T04:34:30.823Z,-0.10
2022-12-11T04:37:02.087Z,-0.10
2022-12-11T04:39:33.519Z,-0.12
2022-12-11T04:42:04.749Z,-0.14
2022-12-11T04:44:36.034Z,-0.13
2022-12-11T04:47:07.229Z,-0.12
2022-12-11T04:49:38.449Z,-0.15
2022-12-11T04:52:09.712Z,-0.19
2022-12-11T04:54:40.976Z,-0.23
2022-12-11T04:57:12.186Z,-0.26
2022-12-11T04:59:43.438Z,-0.27
2022-12-11T05:02:15.612Z,-0.30
2022-12-11T05:04:46.819Z,-0.35
2022-12-11T05:07:18.227Z,-0.41
2022-12-11T05:09:50.445Z,-0.46
2022-12-11T05:12:21.796Z,-0.50
2022-12-11T05:14:53.392Z,-0.51
2022-12-11T05:17:24.652Z,-0.52
2022-12-11T05:19:55.850Z,-0.55
2022-12-11T05:22:27.047Z,-0.58
2022-12-11T05:24:58.272Z,-0.62
2022-12-11T05:27:29.657Z,-0.66
2022-12-11T05:30:00.880Z,-0.69
2022-12-11T05:32:32.079Z,-0.74
2022-12-11T05:35:03.720Z,-0.77
2022-12-11T05:37:34.948Z,-0.78
2022-12-11T05:40:06.449Z,-0.80
2022-12-11T05:42:37.683Z,-0.81
2022-12-11T05:45:09.273Z,-0.83
2022-12-11T05:47:40.654Z,-0.83
2022-12-11T05:50:11.910Z,-0.81
2022-12-11T05:52:43.108Z,-0.79
2022-12-11T05:55:14.351Z,-0.81
2022-12-11T05:57:45.733Z,-0.80
2022-12-11T06:00:16.956Z,-0.85
2022-12-11T06:02:48.373Z,-0.78
2022-12-11T06:05:19.724Z,-0.80
2022-12-11T06:07:50.951Z,-0.81
2022-12-11T06:10:22.194Z,-0.81
2022-12-11T06:12:53.391Z,-0.82
2022-12-11T06:15:24.772Z,-0.83
2022-12-11T06:17:55.977Z,-0.82
2022-12-11T06:20:27.348Z,-0.82
2022-12-11T06:22:58.851Z,-0.83
2022-12-11T06:25:30.106Z,-0.84
2022-12-11T06:28:01.366Z,-0.85
2022-12-11T06:30:38.262Z,-0.86
2022-12-11T06:33:10.795Z,-0.90
2022-12-11T06:35:42.655Z,-0.93
2022-12-11T06:38:13.930Z,-0.96
2022-12-11T06:40:45.426Z,-0.96
2022-12-11T06:43:16.620Z,-1.11
2022-12-11T06:45:48.224Z,-1.04
2022-12-11T06:48:20.082Z,-1.08
2022-12-11T06:50:51.286Z,-1.11
2022-12-11T06:53:22.556Z,-1.15
2022-12-11T06:55:53.764Z,-1.19
2022-12-11T06:58:25.047Z,-1.22
2022-12-11T07:00:56.331Z,-1.25
2022-12-11T07:03:27.934Z,-1.29
2022-12-11T07:06:02.553Z,-1.35
2022-12-11T07:08:33.814Z,-1.44
2022-12-11T07:11:06.497Z,-1.55
2022-12-11T07:13:37.759Z,-1.69
2022-12-11T07:16:10.942Z,-1.81
2022-12-11T07:18:49.780Z,-1.93
2022-12-11T07:21:22.078Z,-2.07
2022-12-11T07:23:53.311Z,-2.17
2022-12-11T07:26:24.833Z,-2.27
2022-12-11T07:28:59.674Z,-2.38
2022-12-11T07:31:31.045Z,-2.47
2022-12-11T07:34:04.971Z,-2.55
2022-12-11T07:36:36.232Z,-2.64
2022-12-11T07:39:08.922Z,-2.70
2022-12-11T07:41:40.263Z,-2.78
2022-12-11T07:44:11.612Z,-2.84
2022-12-11T07:46:42.859Z,-2.89
2022-12-11T07:49:14.063Z,-2.93
2022-12-11T07:51:45.327Z,-2.98
2022-12-11T07:54:16.989Z,-3.05
2022-12-11T07:56:53.197Z,-3.05
2022-12-11T07:59:25.179Z,-3.11
2022-12-11T08:01:56.456Z,-3.12
2022-12-11T08:04:27.681Z,-3.15
2022-12-11T08:06:59.155Z,-3.18
2022-12-11T08:09:30.357Z,-3.21
2022-12-11T08:12:01.655Z,-3.22
2022-12-11T08:14:32.880Z,-3.24
2022-12-11T08:17:04.148Z,-3.26
2022-12-11T08:19:35.401Z,-3.27
2022-12-11T08:22:06.700Z,-3.31
2022-12-11T08:28:05.251Z,-3.33
2022-12-11T08:30:39.399Z,-3.33
2022-12-11T08:33:10.738Z,-3.33
2022-12-11T08:35:43.911Z,-3.34
2022-12-11T08:38:19.604Z,-3.33
2022-12-11T08:40:53.561Z,-3.31
2022-12-11T08:43:25.104Z,-3.30
2022-12-11T08:45:56.344Z,-3.28
2022-12-11T08:48:27.578Z,-3.26
2022-12-11T08:50:59.710Z,-3.23
2022-12-11T08:53:31.580Z,-3.23
2022-12-11T08:56:03.854Z,-3.21
2022-12-11T08:58:35.727Z,-3.20
2022-12-11T09:01:08.813Z,-3.18
2022-12-11T09:03:40.420Z,-3.14
2022-12-11T09:06:13.815Z,-3.14
2022-12-11T09:08:50.391Z,-3.10
2022-12-11T09:11:25.661Z,-3.08
2022-12-11T09:13:59.843Z,-3.06
2022-12-11T09:16:33.963Z,-3.04
2022-12-11T09:19:06.365Z,-3.00
2022-12-11T09:21:37.836Z,-2.96
2022-12-11T09:33:20.556Z,21.18
2022-12-11T09:36:01.371Z,21.15
2022-12-11T09:50:34.152Z,1.51
2022-12-11T09:53:33.903Z,0.75
2022-12-11T09:56:36.061Z,0.33
2022-12-11T09:59:35.956Z,-0.10
2022-12-11T10:02:25.174Z,-0.32
2022-12-11T10:05:27.497Z,-0.59
2022-12-11T10:08:17.570Z,-0.81
2022-12-11T10:11:01.958Z,-0.96
2022-12-11T10:13:53.406Z,-1.07
2022-12-11T10:17:00.696Z,-1.18
2022-12-11T10:19:33.059Z,-1.27
2022-12-11T10:22:04.555Z,-1.37
2022-12-11T10:27:40.947Z,-1.48
2022-12-11T10:30:18.121Z,-1.50
2022-12-11T10:33:20.890Z,-1.63
2022-12-11T10:35:58.308Z,-1.62
2022-12-11T10:38:38.193Z,-1.56
2022-12-11T10:41:17.476Z,-1.59
2022-12-11T10:43:51.355Z,-1.58
2022-12-11T10:46:25.825Z,-1.58
2022-12-11T10:48:59.659Z,-1.57
2022-12-11T10:51:30.882Z,-1.56
2022-12-11T10:54:24.140Z,-1.55
2022-12-11T10:56:56.236Z,-1.55
2022-12-11T10:59:38.065Z,-1.56
2022-12-11T11:02:23.654Z,-1.55
2022-12-11T11:04:57.008Z,-1.55
2022-12-11T11:07:30.684Z,-1.58
2022-12-11T11:10:11.027Z,-1.52
2022-12-11T11:12:45.707Z,-1.52
2022-12-11T11:15:26.978Z,-1.65
2022-12-11T11:18:12.546Z,-1.50
2022-12-11T11:20:47.809Z,-1.50
2022-12-11T11:23:21.605Z,-1.49
2022-12-11T11:26:07.384Z,-1.50
2022-12-11T11:28:48.267Z,-1.47
2022-12-11T11:31:21.728Z,-1.55
2022-12-11T11:34:03.880Z,-1.49
2022-12-11T11:36:37.141Z,-1.41
2022-12-11T11:39:27.271Z,-1.40
2022-12-11T11:42:06.486Z,-1.36
2022-12-11T11:44:42.645Z,-1.35
2022-12-11T11:47:27.841Z,-1.33
2022-12-11T11:50:17.738Z,-1.30
2022-12-11T11:52:57.036Z,-1.33
2022-12-11T11:55:39.661Z,-1.33
2022-12-11T11:58:22.895Z,-1.38
2022-12-11T12:00:55.119Z,-1.42
2022-12-11T12:03:29.707Z,-1.31
2022-12-11T12:06:28.129Z,-1.28
2022-12-11T12:09:17.490Z,-1.27
2022-12-11T12:11:52.149Z,-1.27
2022-12-11T12:14:52.136Z,-1.25
2022-12-11T12:17:55.830Z,-1.23
2022-12-11T12:20:39.687Z,-1.23
2022-12-11T12:23:36.328Z,-1.33
2022-12-11T12:26:14.250Z,-1.25
2022-12-11T12:29:07.722Z,-1.26
2022-12-11T12:32:18.023Z,-1.27
2022-12-11T12:35:04.546Z,-1.26
2022-12-11T12:37:46.786Z,-1.27
2022-12-11T12:40:34.680Z,-1.27
2022-12-11T12:43:26.241Z,-1.41
2022-12-11T12:46:03.291Z,-1.24
2022-12-11T12:48:34.910Z,-1.21
2022-12-11T12:51:06.767Z,-1.26
2022-12-11T12:53:38.458Z,-1.26
2022-12-11T12:56:12.036Z,-1.14
2022-12-11T12:58:45.341Z,-1.26
2022-12-11T13:01:22.607Z,-1.10
2022-12-11T13:04:02.084Z,-1.18
2022-12-11T13:06:37.872Z,-1.13
2022-12-11T13:09:14.582Z,-1.13
2022-12-11T13:11:50.001Z,-1.16
2022-12-11T13:14:27.009Z,-1.16
2022-12-11T13:17:06.532Z,-1.29
2022-12-11T13:19:42.541Z,-1.17
2022-12-11T13:22:16.963Z,-1.16
2022-12-11T13:25:16.805Z,-1.15
2022-12-11T13:27:49.225Z,-1.15
2022-12-11T13:30:24.979Z,-1.15
2022-12-11T13:33:06.489Z,-1.16
2022-12-11T13:35:39.003Z,-1.39
2022-12-11T13:38:20.281Z,-1.20
2022-12-11T13:40:55.527Z,-1.22
2022-12-11T13:43:29.508Z,-1.27
2022-12-11T13:46:03.382Z,-1.26
2022-12-11T13:48:38.852Z,-1.29
2022-12-11T13:51:17.328Z,-1.35
2022-12-11T13:53:49.543Z,-1.49
2022-12-11T13:56:22.171Z,-1.39
2022-12-11T13:58:53.943Z,-1.50
2022-12-11T14:01:30.453Z,-1.46
2022-12-11T14:04:08.866Z,-1.45
2022-12-11T14:06:40.339Z,-1.58
2022-12-11T14:09:18.535Z,-1.51
2022-12-11T14:11:56.468Z,-1.67
2022-12-11T14:14:53.409Z,-1.92
2022-12-11T14:17:28.123Z,-1.52
2022-12-11T14:20:03.036Z,-1.53
2022-12-11T14:22:34.433Z,-1.58
2022-12-11T14:25:20.256Z,-1.77
2022-12-11T14:27:54.589Z,-1.64
2022-12-11T14:30:32.325Z,-1.70
2022-12-11T14:33:05.286Z,-1.78
2022-12-11T14:35:40.276Z,-1.95
2022-12-11T14:38:26.833Z,-2.04
2022-12-11T14:41:06.666Z,-2.00
2022-12-11T14:43:45.242Z,-2.12
2022-12-11T14:46:20.460Z,-2.17
2022-12-11T14:49:01.655Z,-2.15
2022-12-11T14:51:38.563Z,-2.28
2022-12-11T14:54:37.415Z,-2.30
2022-12-11T14:57:18.200Z,-2.39
2022-12-11T14:59:53.043Z,-2.47
2022-12-11T15:02:26.882Z,-2.54
2022-12-11T15:05:20.081Z,-2.64
2022-12-11T15:08:26.602Z,-2.73
2022-12-11T15:11:13.306Z,-2.88
2022-12-11T15:13:55.518Z,-3.06
2022-12-11T15:16:31.624Z,-3.01
2022-12-11T15:19:03.062Z,-3.06
2022-12-11T15:21:36.185Z,-3.20
2022-12-11T15:24:23.140Z,-3.14
2022-12-11T15:26:57.455Z,-3.17
2022-12-11T15:29:36.203Z,-3.38
2022-12-11T15:32:14.041Z,-3.33
2022-12-11T15:34:49.934Z,-3.39
2022-12-11T15:37:25.631Z,-3.43
2022-12-11T15:39:59.183Z,-3.48
2022-12-11T15:42:42.763Z,-3.86
2022-12-11T15:45:25.983Z,-3.59
2022-12-11T15:47:59.349Z,-3.90
2022-12-11T15:50:30.636Z,-3.69
2022-12-11T15:53:02.022Z,-3.71
2022-12-11T15:55:34.942Z,-3.76
2022-12-11T15:58:12.680Z,-3.79
2022-12-11T16:00:44.539Z,-3.85
2022-12-11T16:03:18.106Z,-3.84
2022-12-11T16:05:51.788Z,-3.83
2022-12-11T16:08:23.980Z,-3.84
2022-12-11T16:10:55.667Z,-3.87
2022-12-11T16:13:26.952Z,-3.86
2022-12-11T16:15:58.373Z,-3.87
2022-12-11T16:18:29.690Z,-3.82
2022-12-11T16:21:06.084Z,-3.80
2022-12-11T16:23:37.280Z,-3.74
2022-12-11T16:26:09.605Z,-3.71
2022-12-11T16:28:41.757Z,-3.63
2022-12-11T16:31:14.780Z,-3.52
2022-12-11T16:33:46.259Z,-3.48
2022-12-11T16:36:19.627Z,-3.31
2022-12-11T16:38:53.778Z,-3.20
2022-12-11T16:41:25.747Z,-3.11
2022-12-11T16:43:57.204Z,-3.03
2022-12-11T16:46:28.626Z,-2.94
2022-12-11T16:49:00.089Z,-2.85
2022-12-11T16:51:31.373Z,-2.76
2022-12-11T16:54:03.391Z,-2.68
2022-12-11T16:56:36.775Z,-2.70
2022-12-11T16:59:08.829Z,-2.53
2022-12-11T17:01:40.734Z,-2.47
2022-12-11T17:04:12.152Z,-2.40
2022-12-11T17:06:43.466Z,-2.35
2022-12-11T17:09:14.821Z,-2.29
2022-12-11T17:11:46.153Z,-2.24
2022-12-11T17:14:17.501Z,-2.20
2022-12-11T17:16:48.856Z,-2.22
2022-12-11T17:19:23.010Z,-2.12
2022-12-11T17:21:55.480Z,-2.13
2022-12-11T17:24:27.115Z,-2.04
2022-12-11T17:26:59.575Z,-2.02
2022-12-11T17:29:31.574Z,-1.99
2022-12-11T17:32:03.188Z,-1.99
2022-12-11T17:34:38.100Z,-2.03
2022-12-11T17:37:10.032Z,-2.08
2022-12-11T17:39:41.325Z,-2.01
2022-12-11T17:42:12.941Z,-2.00
2022-12-11T17:44:45.490Z,-1.99
2022-12-11T17:47:16.876Z,-2.10
2022-12-11T17:49:48.526Z,-2.03
2022-12-11T17:52:19.844Z,-2.06
2022-12-11T17:54:52.635Z,-2.07
2022-12-11T17:57:23.972Z,-2.09
2022-12-11T17:59:56.000Z,-2.12
2022-12-11T18:02:35.947Z,-2.33
2022-12-11T18:05:07.527Z,-2.23
2022-12-11T18:07:38.988Z,-2.23
2022-12-11T18:10:10.331Z,-2.27
2022-12-11T18:12:41.629Z,-2.29
2022-12-11T18:15:13.890Z,-2.31
2022-12-11T18:17:46.063Z,-2.46
2022-12-11T18:20:17.525Z,-2.33
2022-12-11T18:22:49.012Z,-2.29
2022-12-11T18:25:20.532Z,-2.25
2022-12-11T18:27:52.241Z,-2.21
2022-12-11T18:30:24.967Z,-2.28
2022-12-11T18:32:56.298Z,-2.08
2022-12-11T18:35:29.675Z,-2.00
2022-12-11T18:38:01.017Z,-1.91
2022-12-11T18:40:32.425Z,-1.86
2022-12-11T18:43:03.846Z,-1.79
2022-12-11T18:45:35.171Z,-1.95
2022-12-11T18:48:06.766Z,-1.69
2022-12-11T18:50:38.231Z,-1.61
2022-12-11T18:53:09.892Z,-1.57
2022-12-11T18:55:43.458Z,-1.69
2022-12-11T18:58:20.468Z,-1.52
2022-12-11T19:00:52.330Z,-1.54
2022-12-11T19:03:23.644Z,-1.64
2022-12-11T19:05:54.960Z,-1.53
2022-12-11T19:08:26.390Z,-1.62
2022-12-11T19:10:57.689Z,-1.45
2022-12-11T19:13:29.027Z,-1.46
2022-12-11T19:16:00.437Z,-1.42
2022-12-11T19:18:31.795Z,-1.40
2022-12-11T19:21:09.366Z,-1.39
2022-12-11T19:23:41.627Z,-1.38
2022-12-11T19:26:15.568Z,-1.35
2022-12-11T19:28:48.421Z,-1.34
2022-12-11T19:31:22.144Z,-1.30
2022-12-11T19:33:54.172Z,-1.30
2022-12-11T19:36:27.358Z,-1.27
2022-12-11T19:39:01.925Z,-1.27
2022-12-11T19:41:33.737Z,-1.28
2022-12-11T19:44:05.037Z,-1.26
2022-12-11T19:46:36.414Z,-1.25
2022-12-11T19:49:07.779Z,-1.30
2022-12-11T19:51:40.866Z,-1.20
2022-12-11T19:54:14.307Z,-1.32
2022-12-11T19:56:45.660Z,-1.18
2022-12-11T19:59:17.765Z,-1.30
2022-12-11T20:01:49.392Z,-1.17
2022-12-11T20:04:21.022Z,-1.18
2022-12-11T20:06:52.425Z,-1.24
2022-12-11T20:09:24.492Z,-1.12
2022-12-11T20:11:56.038Z,-1.19
2022-12-11T20:14:27.431Z,-1.23
2022-12-11T20:17:12.108Z,-1.32
2022-12-11T20:19:44.161Z,-1.06
2022-12-11T20:22:15.743Z,-1.05
2022-12-11T20:24:47.373Z,-1.06
2022-12-11T20:27:19.101Z,-1.09
2022-12-11T20:29:50.712Z,-1.02
2022-12-11T20:32:22.343Z,-0.97
2022-12-11T20:34:57.818Z,-0.95
2022-12-11T20:37:29.432Z,-0.93
2022-12-11T20:40:01.392Z,-1.11
2022-12-11T20:42:33.789Z,-0.96
2022-12-11T20:45:05.812Z,-0.96
2022-12-11T20:47:37.133Z,-0.95
2022-12-11T20:50:10.960Z,-0.83
2022-12-11T20:52:42.532Z,-0.84
2022-12-11T20:55:14.612Z,-0.86
2022-12-11T20:57:46.108Z,-0.76
2022-12-11T21:00:17.777Z,-0.87
2022-12-11T21:02:51.951Z,-0.73
2022-12-11T21:05:23.349Z,-0.83
2022-12-11T21:07:55.006Z,-0.75
2022-12-11T21:10:26.296Z,-0.71
2022-12-11T21:12:57.592Z,-0.69
2022-12-11T21:15:29.038Z,-0.92
2022-12-11T21:18:00.414Z,-0.79
2022-12-11T21:20:32.085Z,-0.71
2022-12-11T21:23:03.783Z,-0.64
2022-12-11T21:25:37.865Z,-0.69
2022-12-11T21:28:09.233Z,-0.66
2022-12-11T21:30:41.141Z,-0.75
2022-12-11T21:33:12.540Z,-0.58
2022-12-11T21:35:43.963Z,-0.58
2022-12-11T21:38:15.252Z,-0.59
2022-12-11T21:40:46.512Z,-0.55
2022-12-11T21:43:17.854Z,-0.57
2022-12-11T21:46:01.103Z,-0.66
2022-12-11T21:48:33.233Z,-0.56
2022-12-11T21:51:16.190Z,-0.55
2022-12-11T21:53:47.889Z,-0.57
2022-12-11T21:56:21.358Z,-0.60
2022-12-11T21:58:54.788Z,-0.61
2022-12-11T22:01:31.267Z,-0.59
2022-12-11T22:04:03.443Z,-0.63
2022-12-11T22:06:35.439Z,-0.67
2022-12-11T22:09:06.712Z,-0.66
2022-12-11T22:11:38.170Z,-0.66
2022-12-11T22:14:13.437Z,-0.67
2022-12-11T22:16:45.641Z,-0.66
2022-12-11T22:19:16.979Z,-0.71
2022-12-11T22:21:48.238Z,-0.61
2022-12-11T22:24:19.508Z,-0.61
2022-12-11T22:26:50.789Z,-0.64
2022-12-11T22:29:22.084Z,-0.67
2022-12-11T22:31:54.417Z,-0.66
2022-12-11T22:34:25.708Z,-0.70
2022-12-11T22:36:57.059Z,-0.74
2022-12-11T22:39:28.384Z,-0.66
2022-12-11T22:41:59.645Z,-0.66
2022-12-11T22:44:30.903Z,-0.62
2022-12-11T22:47:02.292Z,-0.63
2022-12-11T22:49:33.553Z,-0.71
2022-12-11T22:52:04.961Z,-0.63
2022-12-11T22:54:40.334Z,-0.69
2022-12-11T22:57:11.733Z,-0.71
2022-12-11T22:59:42.998Z,-0.57
2022-12-11T23:02:14.903Z,-0.55
2022-12-11T23:04:46.264Z,-0.58
2022-12-11T23:07:17.533Z,-0.58
2022-12-11T23:09:48.796Z,-0.60
2022-12-11T23:12:20.124Z,-0.61
2022-12-11T23:14:51.454Z,-0.64
2022-12-11T23:17:22.940Z,-0.66
2022-12-11T23:19:54.421Z,-0.72
2022-12-11T23:22:25.894Z,-0.73
2022-12-11T23:24:57.259Z,-0.73
2022-12-11T23:27:28.910Z,-0.72
2022-12-11T23:30:00.205Z,-0.77
2022-12-11T23:32:31.576Z,-0.69
2022-12-11T23:35:02.996Z,-0.66
2022-12-11T23:37:34.325Z,-0.64
2022-12-11T23:40:06.230Z,-0.78
2022-12-11T23:42:37.495Z,-0.64
2022-12-11T23:45:09.108Z,-0.67
2022-12-11T23:47:40.394Z,-0.73
2022-12-11T23:50:11.672Z,-0.61
2022-12-11T23:52:42.939Z,-0.70
2022-12-11T23:55:14.891Z,-0.62
2022-12-11T23:57:46.282Z,-0.64
